CheckWX is a tool to help pilots better visualize weather data.  It is not intended as a substitute for an official pre-flight weather briefing.

14:59:08 UTC

KROW METAR
Roswell International Air Center Airport
Roswell, New Mexico, USA
Current

1 hour ago

KROW 221351Z 01016KT 10SM CLR 14/02 A3001 RMK AO2 SLP110 T01390022
Observed
Apr-22 @ 13:51 UTC
Wind
  • 010° at 16 KTS
Visibility
10 SM
Flight Rules
VFR
Cloud Levels
  • Clear skies
Temperature
14°C / 57°F
Dewpoint
C / 36°F
Humidity
44%
Altimeter
30.01" Hg
Pressure
1016.22 hPa
Previous

2 hours ago

KROW 221251Z 33010KT 10SM CLR 14/M04 A2997 RMK AO2 SLP089 T01441039
Observed
Apr-22 @ 12:51 UTC
Wind
  • 330° at 10 KTS
Visibility
10 SM
Flight Rules
VFR
Cloud Levels
  • Clear skies
Temperature
14°C / 57°F
Dewpoint
-4°C / 25°F
Humidity
29%
Altimeter
29.97" Hg
Pressure
1014.92 hPa
Previous

3 hours ago

KROW 221151Z 32007KT 10SM CLR 14/M03 A2993 RMK AO2 SLP074 T01441028 10189 20128 53012
Observed
Apr-22 @ 11:51 UTC
Wind
  • 320° at 7 KTS
Visibility
10 SM
Flight Rules
VFR
Cloud Levels
  • Clear skies
Temperature
14°C / 57°F
Dewpoint
-3°C / 27°F
Humidity
31%
Altimeter
29.93" Hg
Pressure
1013.52 hPa